sensor_id;sensor_type;location;lat;lon;timestamp;P1;durP1;ratioP1;P2;durP2;ratioP2
49296;SDS011;35163;48.878;18.040;2023-04-16T00:01:49;9.23;;;4.38;;
49296;SDS011;35163;48.878;18.040;2023-04-16T00:04:16;9.93;;;4.68;;
49296;SDS011;35163;48.878;18.040;2023-04-16T00:06:42;9.18;;;4.28;;
49296;SDS011;35163;48.878;18.040;2023-04-16T00:09:09;10.38;;;5.32;;
49296;SDS011;35163;48.878;18.040;2023-04-16T00:11:36;9.65;;;4.70;;
49296;SDS011;35163;48.878;18.040;2023-04-16T00:14:03;10.52;;;4.90;;
49296;SDS011;35163;48.878;18.040;2023-04-16T00:16:30;9.70;;;4.30;;
49296;SDS011;35163;48.878;18.040;2023-04-16T00:18:57;10.07;;;4.28;;
49296;SDS011;35163;48.878;18.040;2023-04-16T00:21:23;7.68;;;3.63;;
49296;SDS011;35163;48.878;18.040;2023-04-16T00:23:51;10.60;;;3.80;;
49296;SDS011;35163;48.878;18.040;2023-04-16T00:26:18;8.90;;;4.78;;
49296;SDS011;35163;48.878;18.040;2023-04-16T00:28:45;11.32;;;4.75;;
49296;SDS011;35163;48.878;18.040;2023-04-16T00:31:12;11.40;;;4.40;;
49296;SDS011;35163;48.878;18.040;2023-04-16T00:33:38;11.93;;;4.10;;
49296;SDS011;35163;48.878;18.040;2023-04-16T00:36:05;9.10;;;4.72;;
49296;SDS011;35163;48.878;18.040;2023-04-16T00:38:32;7.03;;;3.53;;
49296;SDS011;35163;48.878;18.040;2023-04-16T00:40:59;6.07;;;3.15;;
49296;SDS011;35163;48.878;18.040;2023-04-16T00:43:26;6.18;;;3.22;;
49296;SDS011;35163;48.878;18.040;2023-04-16T00:45:52;8.18;;;2.90;;
49296;SDS011;35163;48.878;18.040;2023-04-16T00:48:22;9.52;;;4.00;;
49296;SDS011;35163;48.878;18.040;2023-04-16T00:50:49;8.45;;;3.72;;
49296;SDS011;35163;48.878;18.040;2023-04-16T00:53:15;8.07;;;4.20;;
49296;SDS011;35163;48.878;18.040;2023-04-16T00:55:42;9.70;;;4.32;;
49296;SDS011;35163;48.878;18.040;2023-04-16T00:58:09;9.45;;;4.30;;
49296;SDS011;35163;48.878;18.040;2023-04-16T01:00:36;8.70;;;4.88;;
49296;SDS011;35163;48.878;18.040;2023-04-16T01:03:03;10.55;;;5.18;;
49296;SDS011;35163;48.878;18.040;2023-04-16T01:05:34;12.85;;;4.72;;
49296;SDS011;35163;48.878;18.040;2023-04-16T01:08:01;9.57;;;4.95;;
49296;SDS011;35163;48.878;18.040;2023-04-16T01:10:28;11.98;;;5.20;;
49296;SDS011;35163;48.878;18.040;2023-04-16T01:12:55;13.18;;;5.55;;
49296;SDS011;35163;48.878;18.040;2023-04-16T01:15:21;13.30;;;5.38;;
49296;SDS011;35163;48.878;18.040;2023-04-16T01:17:49;9.93;;;5.20;;
49296;SDS011;35163;48.878;18.040;2023-04-16T01:20:16;10.15;;;5.45;;
49296;SDS011;35163;48.878;18.040;2023-04-16T01:22:43;11.50;;;5.85;;
49296;SDS011;35163;48.878;18.040;2023-04-16T01:25:12;10.65;;;5.63;;
49296;SDS011;35163;48.878;18.040;2023-04-16T01:27:40;10.85;;;5.50;;
49296;SDS011;35163;48.878;18.040;2023-04-16T01:30:07;12.45;;;6.45;;
49296;SDS011;35163;48.878;18.040;2023-04-16T01:32:34;13.35;;;6.82;;
49296;SDS011;35163;48.878;18.040;2023-04-16T01:35:00;12.40;;;6.82;;
49296;SDS011;35163;48.878;18.040;2023-04-16T01:37:27;11.77;;;6.20;;
49296;SDS011;35163;48.878;18.040;2023-04-16T01:39:56;14.75;;;7.10;;
49296;SDS011;35163;48.878;18.040;2023-04-16T01:42:23;12.90;;;6.63;;
49296;SDS011;35163;48.878;18.040;2023-04-16T01:44:49;12.93;;;6.70;;
49296;SDS011;35163;48.878;18.040;2023-04-16T01:47:16;15.55;;;7.07;;
49296;SDS011;35163;48.878;18.040;2023-04-16T01:49:43;14.13;;;7.55;;
49296;SDS011;35163;48.878;18.040;2023-04-16T01:52:10;12.85;;;7.60;;
49296;SDS011;35163;48.878;18.040;2023-04-16T01:54:37;16.13;;;8.68;;
49296;SDS011;35163;48.878;18.040;2023-04-16T01:57:04;14.25;;;8.77;;
49296;SDS011;35163;48.878;18.040;2023-04-16T01:59:30;13.48;;;8.30;;
49296;SDS011;35163;48.878;18.040;2023-04-16T02:02:00;14.25;;;8.43;;
49296;SDS011;35163;48.878;18.040;2023-04-16T02:04:39;16.00;;;9.07;;
49296;SDS011;35163;48.878;18.040;2023-04-16T02:07:07;14.90;;;8.85;;
49296;SDS011;35163;48.878;18.040;2023-04-16T02:09:34;19.05;;;9.55;;
49296;SDS011;35163;48.878;18.040;2023-04-16T02:12:02;19.05;;;9.40;;
49296;SDS011;35163;48.878;18.040;2023-04-16T02:14:29;16.30;;;8.35;;
49296;SDS011;35163;48.878;18.040;2023-04-16T02:16:57;12.65;;;7.28;;
49296;SDS011;35163;48.878;18.040;2023-04-16T02:19:23;19.58;;;8.02;;
49296;SDS011;35163;48.878;18.040;2023-04-16T02:21:51;13.25;;;7.40;;
49296;SDS011;35163;48.878;18.040;2023-04-16T02:24:18;15.73;;;8.13;;
49296;SDS011;35163;48.878;18.040;2023-04-16T02:26:47;17.70;;;7.95;;
49296;SDS011;35163;48.878;18.040;2023-04-16T02:29:14;13.77;;;7.00;;
49296;SDS011;35163;48.878;18.040;2023-04-16T02:31:41;13.63;;;7.57;;
49296;SDS011;35163;48.878;18.040;2023-04-16T02:34:08;14.80;;;8.18;;
49296;SDS011;35163;48.878;18.040;2023-04-16T02:36:35;15.60;;;7.40;;
49296;SDS011;35163;48.878;18.040;2023-04-16T02:39:02;14.52;;;8.15;;
49296;SDS011;35163;48.878;18.040;2023-04-16T02:41:29;14.63;;;8.65;;
49296;SDS011;35163;48.878;18.040;2023-04-16T02:43:55;12.65;;;7.47;;
49296;SDS011;35163;48.878;18.040;2023-04-16T02:46:22;14.40;;;8.38;;
49296;SDS011;35163;48.878;18.040;2023-04-16T02:48:49;14.45;;;7.88;;
49296;SDS011;35163;48.878;18.040;2023-04-16T02:51:16;15.45;;;8.70;;
49296;SDS011;35163;48.878;18.040;2023-04-16T02:53:42;15.15;;;8.13;;
49296;SDS011;35163;48.878;18.040;2023-04-16T02:56:11;19.52;;;8.50;;
49296;SDS011;35163;48.878;18.040;2023-04-16T02:58:38;13.23;;;7.55;;
49296;SDS011;35163;48.878;18.040;2023-04-16T03:01:05;16.35;;;8.18;;
49296;SDS011;35163;48.878;18.040;2023-04-16T03:03:31;16.30;;;8.20;;
49296;SDS011;35163;48.878;18.040;2023-04-16T03:05:58;12.95;;;7.90;;
49296;SDS011;35163;48.878;18.040;2023-04-16T03:08:25;19.10;;;8.00;;
49296;SDS011;35163;48.878;18.040;2023-04-16T03:10:52;17.52;;;7.57;;
49296;SDS011;35163;48.878;18.040;2023-04-16T03:13:19;13.85;;;7.60;;
49296;SDS011;35163;48.878;18.040;2023-04-16T03:15:49;14.55;;;7.45;;
49296;SDS011;35163;48.878;18.040;2023-04-16T03:18:15;14.73;;;7.30;;
49296;SDS011;35163;48.878;18.040;2023-04-16T03:20:42;16.40;;;8.30;;
49296;SDS011;35163;48.878;18.040;2023-04-16T03:23:12;15.43;;;8.00;;
49296;SDS011;35163;48.878;18.040;2023-04-16T03:25:38;12.95;;;7.25;;
49296;SDS011;35163;48.878;18.040;2023-04-16T03:28:05;14.90;;;7.35;;
49296;SDS011;35163;48.878;18.040;2023-04-16T03:30:32;12.82;;;6.38;;
49296;SDS011;35163;48.878;18.040;2023-04-16T03:32:59;15.80;;;7.13;;
49296;SDS011;35163;48.878;18.040;2023-04-16T03:35:26;17.90;;;7.80;;
49296;SDS011;35163;48.878;18.040;2023-04-16T03:37:53;14.95;;;7.55;;
49296;SDS011;35163;48.878;18.040;2023-04-16T03:40:19;13.15;;;7.47;;
49296;SDS011;35163;48.878;18.040;2023-04-16T03:42:46;14.35;;;7.55;;
49296;SDS011;35163;48.878;18.040;2023-04-16T03:45:13;12.90;;;7.03;;
49296;SDS011;35163;48.878;18.040;2023-04-16T03:47:40;15.82;;;7.65;;
49296;SDS011;35163;48.878;18.040;2023-04-16T03:50:10;10.40;;;6.43;;
49296;SDS011;35163;48.878;18.040;2023-04-16T03:52:37;16.58;;;7.20;;
49296;SDS011;35163;48.878;18.040;2023-04-16T03:55:04;13.02;;;6.43;;
49296;SDS011;35163;48.878;18.040;2023-04-16T03:57:31;12.82;;;6.63;;
49296;SDS011;35163;48.878;18.040;2023-04-16T03:59:57;16.85;;;7.35;;
49296;SDS011;35163;48.878;18.040;2023-04-16T04:02:24;13.10;;;7.25;;
49296;SDS011;35163;48.878;18.040;2023-04-16T04:04:51;13.63;;;6.68;;
49296;SDS011;35163;48.878;18.040;2023-04-16T04:07:17;13.60;;;6.88;;
49296;SDS011;35163;48.878;18.040;2023-04-16T04:09:44;12.30;;;6.35;;
49296;SDS011;35163;48.878;18.040;2023-04-16T04:12:11;10.73;;;6.68;;
49296;SDS011;35163;48.878;18.040;2023-04-16T04:14:38;12.65;;;7.03;;
49296;SDS011;35163;48.878;18.040;2023-04-16T04:17:05;15.32;;;6.93;;
49296;SDS011;35163;48.878;18.040;2023-04-16T04:19:32;14.27;;;6.65;;
49296;SDS011;35163;48.878;18.040;2023-04-16T04:21:59;12.50;;;6.43;;
49296;SDS011;35163;48.878;18.040;2023-04-16T04:24:25;13.30;;;6.40;;
49296;SDS011;35163;48.878;18.040;2023-04-16T04:26:52;14.20;;;7.25;;
49296;SDS011;35163;48.878;18.040;2023-04-16T04:29:21;13.40;;;6.93;;
49296;SDS011;35163;48.878;18.040;2023-04-16T04:31:48;15.13;;;7.72;;
49296;SDS011;35163;48.878;18.040;2023-04-16T04:34:15;12.82;;;7.32;;
49296;SDS011;35163;48.878;18.040;2023-04-16T04:36:41;14.50;;;7.50;;
49296;SDS011;35163;48.878;18.040;2023-04-16T04:39:08;13.13;;;6.93;;
49296;SDS011;35163;48.878;18.040;2023-04-16T04:41:35;14.55;;;6.32;;
49296;SDS011;35163;48.878;18.040;2023-04-16T04:44:02;11.07;;;5.68;;
49296;SDS011;35163;48.878;18.040;2023-04-16T04:46:29;11.20;;;5.80;;
49296;SDS011;35163;48.878;18.040;2023-04-16T04:48:55;11.85;;;5.75;;
49296;SDS011;35163;48.878;18.040;2023-04-16T04:51:22;14.20;;;6.10;;
49296;SDS011;35163;48.878;18.040;2023-04-16T04:53:48;11.38;;;5.60;;
49296;SDS011;35163;48.878;18.040;2023-04-16T04:56:15;11.57;;;5.53;;
49296;SDS011;35163;48.878;18.040;2023-04-16T04:58:42;14.18;;;8.00;;
49296;SDS011;35163;48.878;18.040;2023-04-16T05:01:09;15.95;;;7.75;;
49296;SDS011;35163;48.878;18.040;2023-04-16T05:03:39;16.70;;;7.78;;
49296;SDS011;35163;48.878;18.040;2023-04-16T05:06:06;13.65;;;7.95;;
49296;SDS011;35163;48.878;18.040;2023-04-16T05:08:33;20.02;;;8.50;;
49296;SDS011;35163;48.878;18.040;2023-04-16T05:10:59;18.77;;;8.73;;
49296;SDS011;35163;48.878;18.040;2023-04-16T05:13:26;16.13;;;7.95;;
49296;SDS011;35163;48.878;18.040;2023-04-16T05:15:53;15.25;;;7.75;;
49296;SDS011;35163;48.878;18.040;2023-04-16T05:18:20;13.20;;;7.18;;
49296;SDS011;35163;48.878;18.040;2023-04-16T05:20:46;13.82;;;7.55;;
49296;SDS011;35163;48.878;18.040;2023-04-16T05:23:13;12.13;;;7.13;;
49296;SDS011;35163;48.878;18.040;2023-04-16T05:25:40;11.50;;;5.70;;
49296;SDS011;35163;48.878;18.040;2023-04-16T05:28:08;10.93;;;5.25;;
49296;SDS011;35163;48.878;18.040;2023-04-16T05:30:35;9.52;;;4.95;;
49296;SDS011;35163;48.878;18.040;2023-04-16T05:33:01;9.57;;;3.92;;
49296;SDS011;35163;48.878;18.040;2023-04-16T05:35:28;10.63;;;4.68;;
49296;SDS011;35163;48.878;18.040;2023-04-16T05:37:55;8.32;;;4.55;;
49296;SDS011;35163;48.878;18.040;2023-04-16T05:40:22;7.50;;;3.70;;
49296;SDS011;35163;48.878;18.040;2023-04-16T05:42:49;11.68;;;3.88;;
49296;SDS011;35163;48.878;18.040;2023-04-16T05:45:15;7.75;;;3.53;;
49296;SDS011;35163;48.878;18.040;2023-04-16T05:47:42;7.63;;;4.07;;
49296;SDS011;35163;48.878;18.040;2023-04-16T05:50:12;11.20;;;4.22;;
49296;SDS011;35163;48.878;18.040;2023-04-16T05:52:38;9.50;;;4.57;;
49296;SDS011;35163;48.878;18.040;2023-04-16T05:55:05;13.13;;;4.20;;
49296;SDS011;35163;48.878;18.040;2023-04-16T05:57:34;9.65;;;4.35;;
49296;SDS011;35163;48.878;18.040;2023-04-16T06:00:01;10.23;;;4.50;;
49296;SDS011;35163;48.878;18.040;2023-04-16T06:02:28;9.00;;;3.88;;
49296;SDS011;35163;48.878;18.040;2023-04-16T06:04:56;9.82;;;4.13;;
49296;SDS011;35163;48.878;18.040;2023-04-16T06:07:23;7.38;;;3.85;;
49296;SDS011;35163;48.878;18.040;2023-04-16T06:09:50;6.75;;;3.17;;
49296;SDS011;35163;48.878;18.040;2023-04-16T06:12:16;7.53;;;3.28;;
49296;SDS011;35163;48.878;18.040;2023-04-16T06:14:43;5.57;;;3.03;;
49296;SDS011;35163;48.878;18.040;2023-04-16T06:17:09;7.85;;;2.83;;
49296;SDS011;35163;48.878;18.040;2023-04-16T06:19:36;6.53;;;3.10;;
49296;SDS011;35163;48.878;18.040;2023-04-16T06:22:03;9.45;;;3.65;;
49296;SDS011;35163;48.878;18.040;2023-04-16T06:24:31;7.32;;;2.70;;
49296;SDS011;35163;48.878;18.040;2023-04-16T06:27:01;7.35;;;3.83;;
49296;SDS011;35163;48.878;18.040;2023-04-16T06:29:28;13.82;;;3.67;;
49296;SDS011;35163;48.878;18.040;2023-04-16T06:32:06;6.40;;;2.92;;
49296;SDS011;35163;48.878;18.040;2023-04-16T06:34:33;7.45;;;3.15;;
49296;SDS011;35163;48.878;18.040;2023-04-16T06:37:00;8.88;;;3.35;;
49296;SDS011;35163;48.878;18.040;2023-04-16T06:39:26;4.22;;;2.60;;
49296;SDS011;35163;48.878;18.040;2023-04-16T06:41:53;6.25;;;2.42;;
49296;SDS011;35163;48.878;18.040;2023-04-16T06:44:20;4.68;;;2.15;;
49296;SDS011;35163;48.878;18.040;2023-04-16T06:46:47;4.63;;;2.10;;
49296;SDS011;35163;48.878;18.040;2023-04-16T06:49:13;5.03;;;2.67;;
49296;SDS011;35163;48.878;18.040;2023-04-16T06:51:40;9.23;;;4.13;;
49296;SDS011;35163;48.878;18.040;2023-04-16T06:54:07;6.57;;;3.15;;
49296;SDS011;35163;48.878;18.040;2023-04-16T06:56:34;5.95;;;3.03;;
49296;SDS011;35163;48.878;18.040;2023-04-16T06:59:02;6.32;;;2.88;;
49296;SDS011;35163;48.878;18.040;2023-04-16T07:01:31;7.90;;;3.08;;
49296;SDS011;35163;48.878;18.040;2023-04-16T07:03:58;11.00;;;2.90;;
49296;SDS011;35163;48.878;18.040;2023-04-16T07:06:25;11.02;;;3.38;;
49296;SDS011;35163;48.878;18.040;2023-04-16T07:08:52;5.45;;;2.65;;
49296;SDS011;35163;48.878;18.040;2023-04-16T07:11:21;6.47;;;3.00;;
49296;SDS011;35163;48.878;18.040;2023-04-16T07:13:48;9.45;;;3.60;;
49296;SDS011;35163;48.878;18.040;2023-04-16T07:16:16;6.03;;;2.90;;
49296;SDS011;35163;48.878;18.040;2023-04-16T07:18:46;5.03;;;2.72;;
49296;SDS011;35163;48.878;18.040;2023-04-16T07:21:13;5.75;;;2.97;;
49296;SDS011;35163;48.878;18.040;2023-04-16T07:23:40;8.10;;;3.08;;
49296;SDS011;35163;48.878;18.040;2023-04-16T07:26:07;5.82;;;2.58;;
49296;SDS011;35163;48.878;18.040;2023-04-16T07:28:33;4.22;;;2.28;;
49296;SDS011;35163;48.878;18.040;2023-04-16T07:31:00;3.95;;;2.03;;
49296;SDS011;35163;48.878;18.040;2023-04-16T07:33:27;6.50;;;2.38;;
49296;SDS011;35163;48.878;18.040;2023-04-16T07:35:54;4.18;;;2.30;;
49296;SDS011;35163;48.878;18.040;2023-04-16T07:38:20;5.30;;;2.30;;
49296;SDS011;35163;48.878;18.040;2023-04-16T07:40:47;13.95;;;7.10;;
49296;SDS011;35163;48.878;18.040;2023-04-16T07:43:14;5.32;;;2.60;;
49296;SDS011;35163;48.878;18.040;2023-04-16T07:45:41;4.47;;;2.15;;
49296;SDS011;35163;48.878;18.040;2023-04-16T07:48:08;4.00;;;2.20;;
49296;SDS011;35163;48.878;18.040;2023-04-16T07:50:35;4.63;;;2.13;;
49296;SDS011;35163;48.878;18.040;2023-04-16T07:53:02;4.80;;;2.17;;
49296;SDS011;35163;48.878;18.040;2023-04-16T07:55:29;3.72;;;2.15;;
49296;SDS011;35163;48.878;18.040;2023-04-16T07:57:55;3.65;;;2.13;;
49296;SDS011;35163;48.878;18.040;2023-04-16T08:00:22;3.78;;;2.03;;
49296;SDS011;35163;48.878;18.040;2023-04-16T08:02:48;4.30;;;1.90;;
49296;SDS011;35163;48.878;18.040;2023-04-16T08:05:16;3.53;;;2.17;;
49296;SDS011;35163;48.878;18.040;2023-04-16T08:07:42;4.20;;;2.15;;
49296;SDS011;35163;48.878;18.040;2023-04-16T08:10:09;3.33;;;1.92;;
49296;SDS011;35163;48.878;18.040;2023-04-16T08:12:36;5.47;;;2.10;;
49296;SDS011;35163;48.878;18.040;2023-04-16T08:15:06;4.55;;;2.00;;
49296;SDS011;35163;48.878;18.040;2023-04-16T08:17:33;3.85;;;2.10;;
49296;SDS011;35163;48.878;18.040;2023-04-16T08:20:00;4.22;;;2.28;;
49296;SDS011;35163;48.878;18.040;2023-04-16T08:22:27;4.32;;;2.53;;
49296;SDS011;35163;48.878;18.040;2023-04-16T08:24:53;4.35;;;2.08;;
49296;SDS011;35163;48.878;18.040;2023-04-16T08:27:22;2.85;;;1.75;;
49296;SDS011;35163;48.878;18.040;2023-04-16T08:29:48;3.50;;;1.80;;
49296;SDS011;35163;48.878;18.040;2023-04-16T08:32:15;3.10;;;1.63;;
49296;SDS011;35163;48.878;18.040;2023-04-16T08:34:42;3.70;;;1.80;;
49296;SDS011;35163;48.878;18.040;2023-04-16T08:37:08;5.10;;;1.88;;
49296;SDS011;35163;48.878;18.040;2023-04-16T08:39:35;2.90;;;1.60;;
49296;SDS011;35163;48.878;18.040;2023-04-16T08:42:06;3.80;;;1.60;;
49296;SDS011;35163;48.878;18.040;2023-04-16T08:44:48;3.67;;;1.80;;
49296;SDS011;35163;48.878;18.040;2023-04-16T08:47:18;4.15;;;1.80;;
49296;SDS011;35163;48.878;18.040;2023-04-16T08:49:47;3.08;;;1.65;;
49296;SDS011;35163;48.878;18.040;2023-04-16T08:52:17;3.95;;;1.73;;
49296;SDS011;35163;48.878;18.040;2023-04-16T08:54:47;3.28;;;1.70;;
49296;SDS011;35163;48.878;18.040;2023-04-16T08:57:22;2.95;;;1.67;;
49296;SDS011;35163;48.878;18.040;2023-04-16T08:59:52;5.03;;;2.10;;
49296;SDS011;35163;48.878;18.040;2023-04-16T09:02:21;2.33;;;1.50;;
49296;SDS011;35163;48.878;18.040;2023-04-16T09:04:49;2.92;;;1.58;;
49296;SDS011;35163;48.878;18.040;2023-04-16T09:07:17;2.65;;;1.27;;
49296;SDS011;35163;48.878;18.040;2023-04-16T09:09:47;2.67;;;1.60;;
49296;SDS011;35163;48.878;18.040;2023-04-16T09:12:15;2.95;;;1.50;;
49296;SDS011;35163;48.878;18.040;2023-04-16T09:14:42;3.15;;;1.52;;
49296;SDS011;35163;48.878;18.040;2023-04-16T09:17:14;2.33;;;1.70;;
49296;SDS011;35163;48.878;18.040;2023-04-16T09:19:42;2.78;;;1.45;;
49296;SDS011;35163;48.878;18.040;2023-04-16T09:22:09;4.13;;;1.90;;
49296;SDS011;35163;48.878;18.040;2023-04-16T09:24:36;3.08;;;1.42;;
49296;SDS011;35163;48.878;18.040;2023-04-16T09:27:07;2.10;;;1.40;;
49296;SDS011;35163;48.878;18.040;2023-04-16T09:29:35;3.50;;;1.60;;
49296;SDS011;35163;48.878;18.040;2023-04-16T09:32:05;3.05;;;1.70;;
49296;SDS011;35163;48.878;18.040;2023-04-16T09:35:19;2.15;;;1.20;;
49296;SDS011;35163;48.878;18.040;2023-04-16T09:37:27;2.35;;;1.40;;
49296;SDS011;35163;48.878;18.040;2023-04-16T09:39:56;1.80;;;1.25;;
49296;SDS011;35163;48.878;18.040;2023-04-16T09:42:24;3.22;;;1.40;;
49296;SDS011;35163;48.878;18.040;2023-04-16T09:44:54;6.85;;;1.33;;
49296;SDS011;35163;48.878;18.040;2023-04-16T09:47:25;3.75;;;1.30;;
49296;SDS011;35163;48.878;18.040;2023-04-16T09:50:05;2.42;;;1.42;;
49296;SDS011;35163;48.878;18.040;2023-04-16T09:52:43;3.05;;;1.38;;
49296;SDS011;35163;48.878;18.040;2023-04-16T09:55:11;3.75;;;1.30;;
49296;SDS011;35163;48.878;18.040;2023-04-16T09:57:37;3.40;;;1.45;;
49296;SDS011;35163;48.878;18.040;2023-04-16T10:00:05;2.00;;;1.13;;
49296;SDS011;35163;48.878;18.040;2023-04-16T10:02:34;6.85;;;3.00;;
49296;SDS011;35163;48.878;18.040;2023-04-16T10:05:04;4.50;;;1.50;;
49296;SDS011;35163;48.878;18.040;2023-04-16T10:07:34;1.83;;;1.20;;
49296;SDS011;35163;48.878;18.040;2023-04-16T10:10:02;4.28;;;2.17;;
49296;SDS011;35163;48.878;18.040;2023-04-16T10:12:30;2.42;;;1.20;;
49296;SDS011;35163;48.878;18.040;2023-04-16T10:14:58;2.13;;;1.20;;
49296;SDS011;35163;48.878;18.040;2023-04-16T10:17:25;2.88;;;1.10;;
49296;SDS011;35163;48.878;18.040;2023-04-16T10:19:52;2.65;;;1.25;;
49296;SDS011;35163;48.878;18.040;2023-04-16T10:22:21;3.33;;;1.55;;
49296;SDS011;35163;48.878;18.040;2023-04-16T10:24:48;3.97;;;1.27;;
49296;SDS011;35163;48.878;18.040;2023-04-16T10:27:16;2.20;;;1.10;;
49296;SDS011;35163;48.878;18.040;2023-04-16T10:29:44;1.75;;;1.00;;
49296;SDS011;35163;48.878;18.040;2023-04-16T10:32:12;2.03;;;1.02;;
49296;SDS011;35163;48.878;18.040;2023-04-16T10:34:39;1.13;;;0.90;;
49296;SDS011;35163;48.878;18.040;2023-04-16T10:37:06;1.60;;;1.05;;
49296;SDS011;35163;48.878;18.040;2023-04-16T10:39:34;1.17;;;0.93;;
49296;SDS011;35163;48.878;18.040;2023-04-16T10:42:10;1.92;;;1.17;;
49296;SDS011;35163;48.878;18.040;2023-04-16T10:44:41;2.05;;;1.23;;
49296;SDS011;35163;48.878;18.040;2023-04-16T10:47:11;1.90;;;1.10;;
49296;SDS011;35163;48.878;18.040;2023-04-16T10:49:39;1.95;;;0.90;;
49296;SDS011;35163;48.878;18.040;2023-04-16T10:52:13;1.70;;;0.95;;
49296;SDS011;35163;48.878;18.040;2023-04-16T10:54:42;4.82;;;1.15;;
49296;SDS011;35163;48.878;18.040;2023-04-16T10:57:13;1.35;;;1.00;;
49296;SDS011;35163;48.878;18.040;2023-04-16T10:59:43;1.48;;;0.85;;
49296;SDS011;35163;48.878;18.040;2023-04-16T11:02:11;1.23;;;0.93;;
49296;SDS011;35163;48.878;18.040;2023-04-16T11:04:43;2.20;;;1.30;;
49296;SDS011;35163;48.878;18.040;2023-04-16T11:07:13;2.20;;;1.00;;
49296;SDS011;35163;48.878;18.040;2023-04-16T11:12:12;2.28;;;1.52;;
49296;SDS011;35163;48.878;18.040;2023-04-16T11:14:47;1.80;;;1.00;;
49296;SDS011;35163;48.878;18.040;2023-04-16T11:17:18;3.70;;;1.05;;
49296;SDS011;35163;48.878;18.040;2023-04-16T11:19:46;1.95;;;0.95;;
49296;SDS011;35163;48.878;18.040;2023-04-16T11:22:14;1.95;;;1.05;;
49296;SDS011;35163;48.878;18.040;2023-04-16T11:24:45;2.28;;;0.77;;
49296;SDS011;35163;48.878;18.040;2023-04-16T11:27:13;1.15;;;0.70;;
49296;SDS011;35163;48.878;18.040;2023-04-16T11:29:41;0.93;;;0.73;;
49296;SDS011;35163;48.878;18.040;2023-04-16T11:32:14;1.42;;;0.80;;
49296;SDS011;35163;48.878;18.040;2023-04-16T11:34:47;1.40;;;0.88;;
49296;SDS011;35163;48.878;18.040;2023-04-16T11:37:14;1.27;;;0.80;;
49296;SDS011;35163;48.878;18.040;2023-04-16T11:39:47;1.08;;;0.90;;
49296;SDS011;35163;48.878;18.040;2023-04-16T11:42:22;0.80;;;0.70;;
49296;SDS011;35163;48.878;18.040;2023-04-16T11:44:53;3.78;;;1.10;;
49296;SDS011;35163;48.878;18.040;2023-04-16T11:47:21;2.15;;;1.00;;
49296;SDS011;35163;48.878;18.040;2023-04-16T11:49:49;1.05;;;0.68;;
49296;SDS011;35163;48.878;18.040;2023-04-16T11:52:29;3.33;;;0.70;;
49296;SDS011;35163;48.878;18.040;2023-04-16T11:54:57;1.63;;;1.00;;
49296;SDS011;35163;48.878;18.040;2023-04-16T11:57:25;1.75;;;0.80;;
49296;SDS011;35163;48.878;18.040;2023-04-16T11:59:53;2.30;;;0.90;;
49296;SDS011;35163;48.878;18.040;2023-04-16T12:05:07;4.35;;;0.93;;
49296;SDS011;35163;48.878;18.040;2023-04-16T12:07:53;0.93;;;0.70;;
49296;SDS011;35163;48.878;18.040;2023-04-16T12:10:23;1.48;;;0.80;;
49296;SDS011;35163;48.878;18.040;2023-04-16T12:12:50;1.48;;;0.80;;
49296;SDS011;35163;48.878;18.040;2023-04-16T12:15:17;1.02;;;0.70;;
49296;SDS011;35163;48.878;18.040;2023-04-16T12:17:44;1.70;;;0.95;;
49296;SDS011;35163;48.878;18.040;2023-04-16T12:20:11;0.98;;;0.77;;
49296;SDS011;35163;48.878;18.040;2023-04-16T12:22:45;3.10;;;0.90;;
49296;SDS011;35163;48.878;18.040;2023-04-16T12:25:14;1.45;;;0.82;;
49296;SDS011;35163;48.878;18.040;2023-04-16T12:30:21;1.08;;;0.77;;
49296;SDS011;35163;48.878;18.040;2023-04-16T12:32:50;3.15;;;0.85;;
49296;SDS011;35163;48.878;18.040;2023-04-16T12:35:29;1.88;;;1.00;;
49296;SDS011;35163;48.878;18.040;2023-04-16T12:37:57;2.10;;;0.80;;
49296;SDS011;35163;48.878;18.040;2023-04-16T12:40:24;3.13;;;0.70;;
49296;SDS011;35163;48.878;18.040;2023-04-16T12:42:51;1.40;;;0.80;;
49296;SDS011;35163;48.878;18.040;2023-04-16T12:45:18;1.05;;;0.70;;
49296;SDS011;35163;48.878;18.040;2023-04-16T12:47:45;4.45;;;1.00;;
49296;SDS011;35163;48.878;18.040;2023-04-16T12:50:12;1.98;;;1.00;;
49296;SDS011;35163;48.878;18.040;2023-04-16T12:52:39;2.35;;;1.08;;
49296;SDS011;35163;48.878;18.040;2023-04-16T12:55:06;1.80;;;0.80;;
49296;SDS011;35163;48.878;18.040;2023-04-16T12:57:33;1.23;;;0.80;;
49296;SDS011;35163;48.878;18.040;2023-04-16T12:59:59;1.08;;;0.70;;
49296;SDS011;35163;48.878;18.040;2023-04-16T13:02:26;0.82;;;0.65;;
49296;SDS011;35163;48.878;18.040;2023-04-16T13:04:54;2.10;;;0.70;;
49296;SDS011;35163;48.878;18.040;2023-04-16T13:07:21;0.80;;;0.80;;
49296;SDS011;35163;48.878;18.040;2023-04-16T13:09:52;1.77;;;0.65;;
49296;SDS011;35163;48.878;18.040;2023-04-16T13:12:18;1.17;;;0.60;;
49296;SDS011;35163;48.878;18.040;2023-04-16T13:14:45;1.15;;;0.80;;
49296;SDS011;35163;48.878;18.040;2023-04-16T13:17:12;2.03;;;0.98;;
49296;SDS011;35163;48.878;18.040;2023-04-16T13:19:39;1.80;;;0.90;;
49296;SDS011;35163;48.878;18.040;2023-04-16T13:22:05;2.63;;;0.98;;
49296;SDS011;35163;48.878;18.040;2023-04-16T13:24:32;1.63;;;0.70;;
49296;SDS011;35163;48.878;18.040;2023-04-16T13:26:59;1.23;;;0.90;;
49296;SDS011;35163;48.878;18.040;2023-04-16T13:29:25;1.55;;;0.90;;
49296;SDS011;35163;48.878;18.040;2023-04-16T13:31:52;2.03;;;0.90;;
49296;SDS011;35163;48.878;18.040;2023-04-16T13:34:19;1.85;;;0.90;;
49296;SDS011;35163;48.878;18.040;2023-04-16T13:36:46;2.65;;;0.82;;
49296;SDS011;35163;48.878;18.040;2023-04-16T13:39:13;1.08;;;0.80;;
49296;SDS011;35163;48.878;18.040;2023-04-16T13:41:40;1.15;;;0.65;;
49296;SDS011;35163;48.878;18.040;2023-04-16T13:44:07;3.50;;;0.90;;
49296;SDS011;35163;48.878;18.040;2023-04-16T13:46:34;3.65;;;1.00;;
49296;SDS011;35163;48.878;18.040;2023-04-16T13:49:00;1.48;;;0.88;;
49296;SDS011;35163;48.878;18.040;2023-04-16T13:51:27;1.17;;;0.80;;
49296;SDS011;35163;48.878;18.040;2023-04-16T13:53:54;1.73;;;1.02;;
49296;SDS011;35163;48.878;18.040;2023-04-16T13:56:21;3.00;;;0.70;;
49296;SDS011;35163;48.878;18.040;2023-04-16T13:58:48;1.35;;;0.90;;
49296;SDS011;35163;48.878;18.040;2023-04-16T14:01:15;1.95;;;1.08;;
49296;SDS011;35163;48.878;18.040;2023-04-16T14:03:42;2.00;;;1.00;;
49296;SDS011;35163;48.878;18.040;2023-04-16T14:06:09;1.40;;;0.85;;
49296;SDS011;35163;48.878;18.040;2023-04-16T14:08:36;2.00;;;0.90;;
49296;SDS011;35163;48.878;18.040;2023-04-16T14:11:03;2.08;;;1.08;;
49296;SDS011;35163;48.878;18.040;2023-04-16T14:13:31;1.83;;;1.00;;
49296;SDS011;35163;48.878;18.040;2023-04-16T14:15:58;1.10;;;0.90;;
49296;SDS011;35163;48.878;18.040;2023-04-16T14:18:25;3.28;;;1.30;;
49296;SDS011;35163;48.878;18.040;2023-04-16T14:20:51;3.28;;;1.02;;
49296;SDS011;35163;48.878;18.040;2023-04-16T14:23:18;3.35;;;1.17;;
49296;SDS011;35163;48.878;18.040;2023-04-16T14:25:45;0.70;;;0.60;;
49296;SDS011;35163;48.878;18.040;2023-04-16T14:28:11;1.30;;;1.00;;
49296;SDS011;35163;48.878;18.040;2023-04-16T14:30:40;18.02;;;7.10;;
49296;SDS011;35163;48.878;18.040;2023-04-16T14:33:07;3.08;;;1.77;;
49296;SDS011;35163;48.878;18.040;2023-04-16T14:35:34;2.25;;;1.35;;
49296;SDS011;35163;48.878;18.040;2023-04-16T14:38:01;3.42;;;1.23;;
49296;SDS011;35163;48.878;18.040;2023-04-16T14:40:28;24.17;;;12.57;;
49296;SDS011;35163;48.878;18.040;2023-04-16T14:42:54;10.65;;;4.47;;